Terminal Aerodrome Forecast
Issued by NWS Bismarck, ND

Home | Current Version | Previous Version | Text Only | Print | Product List | Glossary Off
Versions: 1 2 3 4 5 6 7 8 9 10 11 12 13 14 15 16 17 18 19 20 21

000
FTUS43 KBIS 111922 AAA
TAFISN
TAF AMD
KISN 111922Z 1119/1218 33012G17KT P6SM -SHSN BKN025 OVC045
      TEMPO 1119/1122 SCT015 OVC035
     FM112200 31010KT P6SM SCT020 OVC045
     FM120000 30006KT P6SM BKN040
     FM120200 27005KT P6SM SCT025 SCT180
     FM121400 23005KT P6SM SCT200=

USA.gov is the U.S. government's official web portal to all federal, state and local government web resources and services.